sensor_id;sensor_type;location;lat;lon;timestamp;P1;durP1;ratioP1;P2;durP2;ratioP2
75427;SDS011;64008;55.612;37.698;2023-07-28T00:01:50;10.38;;;6.05;;
75427;SDS011;64008;55.612;37.698;2023-07-28T00:04:16;11.43;;;5.70;;
75427;SDS011;64008;55.612;37.698;2023-07-28T00:06:41;10.52;;;5.55;;
75427;SDS011;64008;55.612;37.698;2023-07-28T00:09:07;10.20;;;6.05;;
75427;SDS011;64008;55.612;37.698;2023-07-28T00:11:32;11.95;;;6.05;;
75427;SDS011;64008;55.612;37.698;2023-07-28T00:13:58;10.63;;;5.75;;
75427;SDS011;64008;55.612;37.698;2023-07-28T00:16:23;11.98;;;6.20;;
75427;SDS011;64008;55.612;37.698;2023-07-28T00:18:49;9.57;;;5.30;;
75427;SDS011;64008;55.612;37.698;2023-07-28T00:21:14;10.32;;;5.43;;
75427;SDS011;64008;55.612;37.698;2023-07-28T00:23:40;11.27;;;5.50;;
75427;SDS011;64008;55.612;37.698;2023-07-28T00:26:06;8.13;;;5.57;;
75427;SDS011;64008;55.612;37.698;2023-07-28T00:28:31;10.35;;;5.45;;
75427;SDS011;64008;55.612;37.698;2023-07-28T00:30:57;9.18;;;5.63;;
75427;SDS011;64008;55.612;37.698;2023-07-28T00:33:22;8.75;;;5.45;;
75427;SDS011;64008;55.612;37.698;2023-07-28T00:35:48;9.98;;;5.63;;
75427;SDS011;64008;55.612;37.698;2023-07-28T00:38:14;9.73;;;5.45;;
75427;SDS011;64008;55.612;37.698;2023-07-28T00:40:39;10.27;;;6.13;;
75427;SDS011;64008;55.612;37.698;2023-07-28T00:43:05;9.43;;;5.45;;
75427;SDS011;64008;55.612;37.698;2023-07-28T00:45:31;10.13;;;5.97;;
75427;SDS011;64008;55.612;37.698;2023-07-28T00:47:58;9.38;;;5.82;;
75427;SDS011;64008;55.612;37.698;2023-07-28T00:50:24;9.52;;;5.93;;
75427;SDS011;64008;55.612;37.698;2023-07-28T00:52:51;8.85;;;5.53;;
75427;SDS011;64008;55.612;37.698;2023-07-28T00:55:16;9.43;;;5.68;;
75427;SDS011;64008;55.612;37.698;2023-07-28T00:57:42;10.13;;;6.07;;
75427;SDS011;64008;55.612;37.698;2023-07-28T01:00:08;9.65;;;6.13;;
75427;SDS011;64008;55.612;37.698;2023-07-28T01:02:35;9.60;;;6.07;;
75427;SDS011;64008;55.612;37.698;2023-07-28T01:05:01;9.38;;;6.07;;
75427;SDS011;64008;55.612;37.698;2023-07-28T01:07:38;8.93;;;5.90;;
75427;SDS011;64008;55.612;37.698;2023-07-28T01:10:13;9.98;;;6.70;;
75427;SDS011;64008;55.612;37.698;2023-07-28T01:12:42;9.90;;;6.00;;
75427;SDS011;64008;55.612;37.698;2023-07-28T01:15:07;8.25;;;5.15;;
75427;SDS011;64008;55.612;37.698;2023-07-28T01:17:33;12.38;;;6.68;;
75427;SDS011;64008;55.612;37.698;2023-07-28T01:19:59;10.35;;;6.60;;
75427;SDS011;64008;55.612;37.698;2023-07-28T01:22:36;9.52;;;5.80;;
75427;SDS011;64008;55.612;37.698;2023-07-28T01:25:39;9.52;;;6.18;;
75427;SDS011;64008;55.612;37.698;2023-07-28T01:28:13;10.00;;;6.63;;
75427;SDS011;64008;55.612;37.698;2023-07-28T01:30:40;12.35;;;6.35;;
75427;SDS011;64008;55.612;37.698;2023-07-28T01:33:06;9.60;;;6.38;;
75427;SDS011;64008;55.612;37.698;2023-07-28T01:35:33;11.77;;;7.28;;
75427;SDS011;64008;55.612;37.698;2023-07-28T01:37:58;10.45;;;6.20;;
75427;SDS011;64008;55.612;37.698;2023-07-28T01:40:24;10.00;;;6.60;;
75427;SDS011;64008;55.612;37.698;2023-07-28T01:42:49;8.82;;;5.72;;
75427;SDS011;64008;55.612;37.698;2023-07-28T01:45:15;9.30;;;6.00;;
75427;SDS011;64008;55.612;37.698;2023-07-28T01:47:40;10.52;;;5.97;;
75427;SDS011;64008;55.612;37.698;2023-07-28T01:50:06;9.60;;;6.18;;
75427;SDS011;64008;55.612;37.698;2023-07-28T01:52:32;8.88;;;6.03;;
75427;SDS011;64008;55.612;37.698;2023-07-28T01:54:57;10.93;;;6.05;;
75427;SDS011;64008;55.612;37.698;2023-07-28T01:57:23;10.15;;;6.13;;
75427;SDS011;64008;55.612;37.698;2023-07-28T01:59:52;10.98;;;6.43;;
75427;SDS011;64008;55.612;37.698;2023-07-28T02:02:18;8.95;;;5.85;;
75427;SDS011;64008;55.612;37.698;2023-07-28T02:04:43;10.60;;;6.13;;
75427;SDS011;64008;55.612;37.698;2023-07-28T02:07:09;9.38;;;6.18;;
75427;SDS011;64008;55.612;37.698;2023-07-28T02:09:34;10.23;;;6.60;;
75427;SDS011;64008;55.612;37.698;2023-07-28T02:12:00;11.60;;;7.05;;
75427;SDS011;64008;55.612;37.698;2023-07-28T02:14:25;9.70;;;6.30;;
75427;SDS011;64008;55.612;37.698;2023-07-28T02:16:51;12.30;;;6.65;;
75427;SDS011;64008;55.612;37.698;2023-07-28T02:19:16;8.50;;;5.95;;
75427;SDS011;64008;55.612;37.698;2023-07-28T02:21:42;10.60;;;6.30;;
75427;SDS011;64008;55.612;37.698;2023-07-28T02:24:07;10.23;;;6.30;;
75427;SDS011;64008;55.612;37.698;2023-07-28T02:26:33;10.57;;;6.65;;
75427;SDS011;64008;55.612;37.698;2023-07-28T02:28:58;11.13;;;6.32;;
75427;SDS011;64008;55.612;37.698;2023-07-28T02:31:24;9.23;;;6.05;;
75427;SDS011;64008;55.612;37.698;2023-07-28T02:33:49;10.60;;;6.53;;
75427;SDS011;64008;55.612;37.698;2023-07-28T02:36:15;11.23;;;6.28;;
75427;SDS011;64008;55.612;37.698;2023-07-28T02:38:40;10.18;;;6.30;;
75427;SDS011;64008;55.612;37.698;2023-07-28T02:41:06;9.50;;;6.55;;
75427;SDS011;64008;55.612;37.698;2023-07-28T02:43:32;11.50;;;6.53;;
75427;SDS011;64008;55.612;37.698;2023-07-28T02:45:57;10.35;;;6.60;;
75427;SDS011;64008;55.612;37.698;2023-07-28T02:48:23;9.50;;;5.70;;
75427;SDS011;64008;55.612;37.698;2023-07-28T02:50:52;9.98;;;6.25;;
75427;SDS011;64008;55.612;37.698;2023-07-28T02:53:18;12.20;;;6.20;;
75427;SDS011;64008;55.612;37.698;2023-07-28T02:55:44;11.30;;;6.57;;
75427;SDS011;64008;55.612;37.698;2023-07-28T02:58:11;10.25;;;5.85;;
75427;SDS011;64008;55.612;37.698;2023-07-28T03:00:37;10.10;;;6.55;;
75427;SDS011;64008;55.612;37.698;2023-07-28T03:03:04;8.80;;;6.05;;
75427;SDS011;64008;55.612;37.698;2023-07-28T03:07:58;9.73;;;5.55;;
75427;SDS011;64008;55.612;37.698;2023-07-28T03:10:24;13.75;;;6.40;;
75427;SDS011;64008;55.612;37.698;2023-07-28T03:12:50;9.35;;;5.97;;
75427;SDS011;64008;55.612;37.698;2023-07-28T03:15:16;9.70;;;6.25;;
75427;SDS011;64008;55.612;37.698;2023-07-28T03:17:41;10.60;;;5.88;;
75427;SDS011;64008;55.612;37.698;2023-07-28T03:20:07;8.95;;;5.75;;
75427;SDS011;64008;55.612;37.698;2023-07-28T03:22:33;9.85;;;5.78;;
75427;SDS011;64008;55.612;37.698;2023-07-28T03:24:58;9.90;;;5.95;;
75427;SDS011;64008;55.612;37.698;2023-07-28T03:27:24;10.30;;;6.40;;
75427;SDS011;64008;55.612;37.698;2023-07-28T03:29:50;9.15;;;5.85;;
75427;SDS011;64008;55.612;37.698;2023-07-28T03:32:16;11.45;;;6.38;;
75427;SDS011;64008;55.612;37.698;2023-07-28T03:34:41;8.85;;;5.45;;
75427;SDS011;64008;55.612;37.698;2023-07-28T03:37:07;10.88;;;5.95;;
75427;SDS011;64008;55.612;37.698;2023-07-28T03:39:33;10.05;;;5.32;;
75427;SDS011;64008;55.612;37.698;2023-07-28T03:41:58;8.82;;;5.30;;
75427;SDS011;64008;55.612;37.698;2023-07-28T03:44:24;8.90;;;5.53;;
75427;SDS011;64008;55.612;37.698;2023-07-28T03:46:50;8.52;;;5.20;;
75427;SDS011;64008;55.612;37.698;2023-07-28T03:49:15;7.93;;;4.95;;
75427;SDS011;64008;55.612;37.698;2023-07-28T03:51:41;8.80;;;5.25;;
75427;SDS011;64008;55.612;37.698;2023-07-28T03:54:06;9.80;;;5.78;;
75427;SDS011;64008;55.612;37.698;2023-07-28T03:56:32;10.15;;;5.28;;
75427;SDS011;64008;55.612;37.698;2023-07-28T03:58:57;12.13;;;5.53;;
75427;SDS011;64008;55.612;37.698;2023-07-28T04:01:23;10.30;;;5.10;;
75427;SDS011;64008;55.612;37.698;2023-07-28T04:03:49;10.15;;;5.40;;
75427;SDS011;64008;55.612;37.698;2023-07-28T04:06:14;9.80;;;4.78;;
75427;SDS011;64008;55.612;37.698;2023-07-28T04:08:40;8.63;;;4.25;;
75427;SDS011;64008;55.612;37.698;2023-07-28T04:11:06;8.60;;;4.95;;
75427;SDS011;64008;55.612;37.698;2023-07-28T04:13:32;7.75;;;4.97;;
75427;SDS011;64008;55.612;37.698;2023-07-28T04:15:59;9.82;;;5.38;;
75427;SDS011;64008;55.612;37.698;2023-07-28T04:18:25;10.15;;;6.10;;
75427;SDS011;64008;55.612;37.698;2023-07-28T04:20:50;7.90;;;4.72;;
75427;SDS011;64008;55.612;37.698;2023-07-28T04:23:16;8.15;;;5.25;;
75427;SDS011;64008;55.612;37.698;2023-07-28T04:25:41;8.13;;;4.75;;
75427;SDS011;64008;55.612;37.698;2023-07-28T04:28:07;10.32;;;5.22;;
75427;SDS011;64008;55.612;37.698;2023-07-28T04:30:32;8.27;;;5.00;;
75427;SDS011;64008;55.612;37.698;2023-07-28T04:32:58;7.78;;;4.93;;
75427;SDS011;64008;55.612;37.698;2023-07-28T04:35:23;9.57;;;5.55;;
75427;SDS011;64008;55.612;37.698;2023-07-28T04:37:49;22.25;;;12.85;;
75427;SDS011;64008;55.612;37.698;2023-07-28T04:40:14;12.35;;;7.75;;
75427;SDS011;64008;55.612;37.698;2023-07-28T04:42:40;9.52;;;6.10;;
75427;SDS011;64008;55.612;37.698;2023-07-28T04:45:06;10.63;;;5.93;;
75427;SDS011;64008;55.612;37.698;2023-07-28T04:47:32;7.93;;;5.57;;
75427;SDS011;64008;55.612;37.698;2023-07-28T04:49:57;10.75;;;5.80;;
75427;SDS011;64008;55.612;37.698;2023-07-28T04:52:23;9.05;;;5.53;;
75427;SDS011;64008;55.612;37.698;2023-07-28T04:54:48;11.30;;;6.85;;
75427;SDS011;64008;55.612;37.698;2023-07-28T04:57:14;10.52;;;5.63;;
75427;SDS011;64008;55.612;37.698;2023-07-28T04:59:39;9.40;;;4.82;;
75427;SDS011;64008;55.612;37.698;2023-07-28T05:02:05;8.13;;;5.05;;
75427;SDS011;64008;55.612;37.698;2023-07-28T05:04:31;9.13;;;5.15;;
75427;SDS011;64008;55.612;37.698;2023-07-28T05:06:57;8.18;;;4.65;;
75427;SDS011;64008;55.612;37.698;2023-07-28T05:09:22;7.07;;;4.28;;
75427;SDS011;64008;55.612;37.698;2023-07-28T05:11:48;6.57;;;3.95;;
75427;SDS011;64008;55.612;37.698;2023-07-28T05:14:13;8.18;;;4.32;;
75427;SDS011;64008;55.612;37.698;2023-07-28T05:16:39;9.35;;;4.38;;
75427;SDS011;64008;55.612;37.698;2023-07-28T05:19:07;7.53;;;4.28;;
75427;SDS011;64008;55.612;37.698;2023-07-28T05:21:33;8.32;;;4.10;;
75427;SDS011;64008;55.612;37.698;2023-07-28T05:23:58;8.60;;;4.13;;
75427;SDS011;64008;55.612;37.698;2023-07-28T05:26:24;6.25;;;3.65;;
75427;SDS011;64008;55.612;37.698;2023-07-28T05:28:49;6.40;;;3.85;;
75427;SDS011;64008;55.612;37.698;2023-07-28T05:31:15;9.55;;;4.25;;
75427;SDS011;64008;55.612;37.698;2023-07-28T05:33:41;22.85;;;6.05;;
75427;SDS011;64008;55.612;37.698;2023-07-28T05:36:07;14.45;;;4.97;;
75427;SDS011;64008;55.612;37.698;2023-07-28T05:38:33;14.93;;;5.32;;
75427;SDS011;64008;55.612;37.698;2023-07-28T05:40:59;15.63;;;6.00;;
75427;SDS011;64008;55.612;37.698;2023-07-28T05:43:29;16.98;;;6.15;;
75427;SDS011;64008;55.612;37.698;2023-07-28T05:45:58;23.67;;;8.10;;
75427;SDS011;64008;55.612;37.698;2023-07-28T05:48:25;20.30;;;6.90;;
75427;SDS011;64008;55.612;37.698;2023-07-28T05:50:51;13.68;;;6.40;;
75427;SDS011;64008;55.612;37.698;2023-07-28T05:53:18;13.85;;;5.95;;
75427;SDS011;64008;55.612;37.698;2023-07-28T05:55:46;11.98;;;4.82;;
75427;SDS011;64008;55.612;37.698;2023-07-28T05:58:13;10.23;;;4.22;;
75427;SDS011;64008;55.612;37.698;2023-07-28T06:00:39;8.60;;;3.85;;
75427;SDS011;64008;55.612;37.698;2023-07-28T06:03:06;7.40;;;3.53;;
75427;SDS011;64008;55.612;37.698;2023-07-28T06:05:32;12.07;;;3.97;;
75427;SDS011;64008;55.612;37.698;2023-07-28T06:07:57;7.90;;;3.60;;
75427;SDS011;64008;55.612;37.698;2023-07-28T06:10:23;9.38;;;3.35;;
75427;SDS011;64008;55.612;37.698;2023-07-28T06:12:48;6.53;;;3.20;;
75427;SDS011;64008;55.612;37.698;2023-07-28T06:15:14;7.15;;;3.17;;
75427;SDS011;64008;55.612;37.698;2023-07-28T06:17:39;8.38;;;3.33;;
75427;SDS011;64008;55.612;37.698;2023-07-28T06:20:05;10.95;;;3.50;;
75427;SDS011;64008;55.612;37.698;2023-07-28T06:22:31;8.10;;;3.20;;
75427;SDS011;64008;55.612;37.698;2023-07-28T06:24:57;9.85;;;4.88;;
75427;SDS011;64008;55.612;37.698;2023-07-28T06:27:22;10.75;;;4.00;;
75427;SDS011;64008;55.612;37.698;2023-07-28T06:29:48;6.22;;;3.22;;
75427;SDS011;64008;55.612;37.698;2023-07-28T06:32:13;5.85;;;3.17;;
75427;SDS011;64008;55.612;37.698;2023-07-28T06:34:39;7.22;;;3.38;;
75427;SDS011;64008;55.612;37.698;2023-07-28T06:37:04;6.95;;;3.67;;
75427;SDS011;64008;55.612;37.698;2023-07-28T06:39:30;8.18;;;3.53;;
75427;SDS011;64008;55.612;37.698;2023-07-28T06:41:55;8.32;;;3.47;;
75427;SDS011;64008;55.612;37.698;2023-07-28T06:44:21;7.07;;;3.25;;
75427;SDS011;64008;55.612;37.698;2023-07-28T06:46:46;7.63;;;3.58;;
75427;SDS011;64008;55.612;37.698;2023-07-28T06:49:14;6.18;;;3.00;;
75427;SDS011;64008;55.612;37.698;2023-07-28T06:51:39;6.47;;;3.25;;
75427;SDS011;64008;55.612;37.698;2023-07-28T06:54:05;6.53;;;3.08;;
75427;SDS011;64008;55.612;37.698;2023-07-28T06:56:34;7.25;;;2.80;;
75427;SDS011;64008;55.612;37.698;2023-07-28T06:59:00;6.95;;;2.75;;
75427;SDS011;64008;55.612;37.698;2023-07-28T07:01:26;8.60;;;2.95;;
75427;SDS011;64008;55.612;37.698;2023-07-28T07:03:51;6.30;;;2.70;;
75427;SDS011;64008;55.612;37.698;2023-07-28T07:06:17;6.70;;;3.05;;
75427;SDS011;64008;55.612;37.698;2023-07-28T07:08:42;6.28;;;2.70;;
75427;SDS011;64008;55.612;37.698;2023-07-28T07:11:08;6.10;;;3.08;;
75427;SDS011;64008;55.612;37.698;2023-07-28T07:13:34;7.47;;;3.22;;
75427;SDS011;64008;55.612;37.698;2023-07-28T07:15:59;6.15;;;2.90;;
75427;SDS011;64008;55.612;37.698;2023-07-28T07:18:25;7.20;;;3.17;;
75427;SDS011;64008;55.612;37.698;2023-07-28T07:20:51;6.93;;;3.38;;
75427;SDS011;64008;55.612;37.698;2023-07-28T07:23:16;7.80;;;3.35;;
75427;SDS011;64008;55.612;37.698;2023-07-28T07:25:42;7.55;;;3.45;;
75427;SDS011;64008;55.612;37.698;2023-07-28T07:28:07;6.18;;;3.03;;
75427;SDS011;64008;55.612;37.698;2023-07-28T07:30:33;9.57;;;3.10;;
75427;SDS011;64008;55.612;37.698;2023-07-28T07:32:59;7.72;;;3.08;;
75427;SDS011;64008;55.612;37.698;2023-07-28T07:35:24;7.65;;;2.42;;
75427;SDS011;64008;55.612;37.698;2023-07-28T07:37:50;5.93;;;2.90;;
75427;SDS011;64008;55.612;37.698;2023-07-28T07:40:15;9.38;;;3.30;;
75427;SDS011;64008;55.612;37.698;2023-07-28T07:42:46;6.20;;;3.20;;
75427;SDS011;64008;55.612;37.698;2023-07-28T07:45:13;5.82;;;3.05;;
75427;SDS011;64008;55.612;37.698;2023-07-28T07:50:05;6.30;;;2.63;;
75427;SDS011;64008;55.612;37.698;2023-07-28T07:52:34;6.78;;;2.63;;
75427;SDS011;64008;55.612;37.698;2023-07-28T07:55:00;5.47;;;2.45;;
75427;SDS011;64008;55.612;37.698;2023-07-28T07:57:25;6.65;;;2.90;;
75427;SDS011;64008;55.612;37.698;2023-07-28T07:59:51;4.65;;;2.50;;
75427;SDS011;64008;55.612;37.698;2023-07-28T08:02:16;5.00;;;2.65;;
75427;SDS011;64008;55.612;37.698;2023-07-28T08:04:42;6.18;;;2.65;;
75427;SDS011;64008;55.612;37.698;2023-07-28T08:09:33;9.43;;;3.55;;
75427;SDS011;64008;55.612;37.698;2023-07-28T08:11:59;6.22;;;2.88;;
75427;SDS011;64008;55.612;37.698;2023-07-28T08:16:51;6.68;;;2.60;;
75427;SDS011;64008;55.612;37.698;2023-07-28T08:19:16;5.70;;;2.70;;
75427;SDS011;64008;55.612;37.698;2023-07-28T08:21:42;6.43;;;3.00;;
75427;SDS011;64008;55.612;37.698;2023-07-28T08:24:07;6.07;;;2.92;;
75427;SDS011;64008;55.612;37.698;2023-07-28T08:26:33;5.70;;;3.17;;
75427;SDS011;64008;55.612;37.698;2023-07-28T08:28:59;6.47;;;3.08;;
75427;SDS011;64008;55.612;37.698;2023-07-28T08:31:24;5.60;;;2.95;;
75427;SDS011;64008;55.612;37.698;2023-07-28T08:33:50;5.60;;;3.00;;
75427;SDS011;64008;55.612;37.698;2023-07-28T08:36:16;9.27;;;4.15;;
75427;SDS011;64008;55.612;37.698;2023-07-28T08:38:42;8.50;;;3.08;;
75427;SDS011;64008;55.612;37.698;2023-07-28T08:41:07;7.10;;;3.90;;
75427;SDS011;64008;55.612;37.698;2023-07-28T08:43:33;7.35;;;3.42;;
75427;SDS011;64008;55.612;37.698;2023-07-28T08:45:58;5.40;;;3.08;;
75427;SDS011;64008;55.612;37.698;2023-07-28T08:48:24;6.78;;;3.42;;
75427;SDS011;64008;55.612;37.698;2023-07-28T08:50:49;5.45;;;2.60;;
75427;SDS011;64008;55.612;37.698;2023-07-28T08:53:16;8.90;;;3.28;;
75427;SDS011;64008;55.612;37.698;2023-07-28T08:55:42;6.95;;;3.22;;
75427;SDS011;64008;55.612;37.698;2023-07-28T08:58:41;6.68;;;3.40;;
75427;SDS011;64008;55.612;37.698;2023-07-28T09:00:59;7.13;;;2.90;;
75427;SDS011;64008;55.612;37.698;2023-07-28T09:03:28;6.85;;;3.05;;
75427;SDS011;64008;55.612;37.698;2023-07-28T09:06:01;5.55;;;2.88;;
75427;SDS011;64008;55.612;37.698;2023-07-28T09:08:27;7.07;;;2.90;;
75427;SDS011;64008;55.612;37.698;2023-07-28T09:10:55;6.60;;;3.22;;
75427;SDS011;64008;55.612;37.698;2023-07-28T09:13:20;8.15;;;4.00;;
75427;SDS011;64008;55.612;37.698;2023-07-28T09:15:46;5.63;;;3.08;;
75427;SDS011;64008;55.612;37.698;2023-07-28T09:18:12;6.22;;;2.90;;
75427;SDS011;64008;55.612;37.698;2023-07-28T09:20:40;6.85;;;3.05;;
75427;SDS011;64008;55.612;37.698;2023-07-28T09:23:07;5.55;;;2.92;;
75427;SDS011;64008;55.612;37.698;2023-07-28T09:25:33;5.13;;;2.63;;
75427;SDS011;64008;55.612;37.698;2023-07-28T09:28:00;6.28;;;3.00;;
75427;SDS011;64008;55.612;37.698;2023-07-28T09:30:26;6.00;;;2.72;;
75427;SDS011;64008;55.612;37.698;2023-07-28T09:32:52;6.30;;;2.88;;
75427;SDS011;64008;55.612;37.698;2023-07-28T09:35:20;6.70;;;2.97;;
75427;SDS011;64008;55.612;37.698;2023-07-28T09:37:47;6.70;;;2.92;;
75427;SDS011;64008;55.612;37.698;2023-07-28T09:40:16;8.90;;;4.13;;
75427;SDS011;64008;55.612;37.698;2023-07-28T09:42:44;6.38;;;3.13;;
75427;SDS011;64008;55.612;37.698;2023-07-28T09:45:14;6.95;;;3.78;;
75427;SDS011;64008;55.612;37.698;2023-07-28T09:47:42;6.28;;;3.30;;
75427;SDS011;64008;55.612;37.698;2023-07-28T09:50:11;7.00;;;3.95;;
75427;SDS011;64008;55.612;37.698;2023-07-28T09:52:43;7.70;;;4.28;;
75427;SDS011;64008;55.612;37.698;2023-07-28T09:55:12;7.00;;;3.85;;
75427;SDS011;64008;55.612;37.698;2023-07-28T09:57:50;10.63;;;4.30;;
75427;SDS011;64008;55.612;37.698;2023-07-28T10:00:20;6.55;;;3.50;;
75427;SDS011;64008;55.612;37.698;2023-07-28T10:02:47;8.13;;;4.15;;
75427;SDS011;64008;55.612;37.698;2023-07-28T10:05:13;9.52;;;4.95;;
75427;SDS011;64008;55.612;37.698;2023-07-28T10:07:40;15.18;;;9.10;;
75427;SDS011;64008;55.612;37.698;2023-07-28T10:10:09;9.75;;;6.43;;
75427;SDS011;64008;55.612;37.698;2023-07-28T10:12:40;9.38;;;4.97;;
75427;SDS011;64008;55.612;37.698;2023-07-28T10:15:13;7.35;;;3.95;;
75427;SDS011;64008;55.612;37.698;2023-07-28T10:17:43;7.78;;;4.10;;
75427;SDS011;64008;55.612;37.698;2023-07-28T10:23:14;7.20;;;3.83;;
75427;SDS011;64008;55.612;37.698;2023-07-28T10:25:47;8.45;;;3.65;;
75427;SDS011;64008;55.612;37.698;2023-07-28T10:30:57;8.48;;;3.90;;
75427;SDS011;64008;55.612;37.698;2023-07-28T10:33:30;13.55;;;7.95;;
75427;SDS011;64008;55.612;37.698;2023-07-28T10:36:18;10.77;;;5.40;;
75427;SDS011;64008;55.612;37.698;2023-07-28T10:41:29;7.10;;;4.15;;
75427;SDS011;64008;55.612;37.698;2023-07-28T10:43:58;9.30;;;5.38;;
75427;SDS011;64008;55.612;37.698;2023-07-28T10:46:23;11.35;;;5.32;;
75427;SDS011;64008;55.612;37.698;2023-07-28T10:48:51;8.52;;;4.78;;
75427;SDS011;64008;55.612;37.698;2023-07-28T10:51:35;7.63;;;4.47;;
75427;SDS011;64008;55.612;37.698;2023-07-28T10:54:01;7.75;;;4.60;;
75427;SDS011;64008;55.612;37.698;2023-07-28T10:56:29;7.40;;;4.13;;
75427;SDS011;64008;55.612;37.698;2023-07-28T10:58:56;10.32;;;4.43;;
75427;SDS011;64008;55.612;37.698;2023-07-28T11:01:32;7.53;;;4.22;;
75427;SDS011;64008;55.612;37.698;2023-07-28T11:04:12;8.30;;;4.63;;
75427;SDS011;64008;55.612;37.698;2023-07-28T11:06:42;8.80;;;4.82;;
75427;SDS011;64008;55.612;37.698;2023-07-28T11:09:09;9.85;;;4.72;;
75427;SDS011;64008;55.612;37.698;2023-07-28T11:11:37;9.85;;;5.13;;
75427;SDS011;64008;55.612;37.698;2023-07-28T11:14:06;8.60;;;4.97;;
75427;SDS011;64008;55.612;37.698;2023-07-28T11:16:36;9.35;;;4.75;;
75427;SDS011;64008;55.612;37.698;2023-07-28T11:19:07;8.80;;;4.90;;
75427;SDS011;64008;55.612;37.698;2023-07-28T11:21:36;7.18;;;4.35;;
75427;SDS011;64008;55.612;37.698;2023-07-28T11:24:09;8.48;;;4.65;;
75427;SDS011;64008;55.612;37.698;2023-07-28T11:26:35;7.47;;;3.80;;
75427;SDS011;64008;55.612;37.698;2023-07-28T11:29:01;7.22;;;3.83;;
75427;SDS011;64008;55.612;37.698;2023-07-28T11:31:28;8.48;;;4.75;;
75427;SDS011;64008;55.612;37.698;2023-07-28T11:33:54;7.40;;;4.30;;
75427;SDS011;64008;55.612;37.698;2023-07-28T11:36:26;8.18;;;5.43;;
75427;SDS011;64008;55.612;37.698;2023-07-28T11:38:53;10.40;;;5.50;;
75427;SDS011;64008;55.612;37.698;2023-07-28T11:41:20;8.95;;;5.70;;
75427;SDS011;64008;55.612;37.698;2023-07-28T11:43:48;8.05;;;4.88;;
75427;SDS011;64008;55.612;37.698;2023-07-28T11:49:11;7.30;;;4.15;;
75427;SDS011;64008;55.612;37.698;2023-07-28T11:51:41;9.32;;;4.65;;
75427;SDS011;64008;55.612;37.698;2023-07-28T11:54:11;7.25;;;4.60;;
75427;SDS011;64008;55.612;37.698;2023-07-28T11:56:39;7.72;;;4.55;;
75427;SDS011;64008;55.612;37.698;2023-07-28T11:59:09;7.95;;;4.53;;
75427;SDS011;64008;55.612;37.698;2023-07-28T12:04:19;7.38;;;4.05;;
75427;SDS011;64008;55.612;37.698;2023-07-28T12:12:21;7.13;;;4.60;;
75427;SDS011;64008;55.612;37.698;2023-07-28T12:14:48;6.43;;;3.83;;
75427;SDS011;64008;55.612;37.698;2023-07-28T12:17:19;7.70;;;4.70;;
75427;SDS011;64008;55.612;37.698;2023-07-28T12:22:40;8.07;;;4.40;;
75427;SDS011;64008;55.612;37.698;2023-07-28T12:25:06;6.97;;;4.55;;
75427;SDS011;64008;55.612;37.698;2023-07-28T12:27:32;7.22;;;4.63;;
75427;SDS011;64008;55.612;37.698;2023-07-28T12:29:58;7.80;;;4.22;;
75427;SDS011;64008;55.612;37.698;2023-07-28T12:32:24;7.57;;;4.30;;
75427;SDS011;64008;55.612;37.698;2023-07-28T12:34:50;7.25;;;4.32;;
75427;SDS011;64008;55.612;37.698;2023-07-28T12:37:16;6.45;;;3.85;;
75427;SDS011;64008;55.612;37.698;2023-07-28T12:39:42;8.43;;;4.85;;
75427;SDS011;64008;55.612;37.698;2023-07-28T12:42:09;7.13;;;4.40;;
75427;SDS011;64008;55.612;37.698;2023-07-28T12:44:35;8.52;;;4.82;;
75427;SDS011;64008;55.612;37.698;2023-07-28T12:47:02;9.50;;;5.00;;
75427;SDS011;64008;55.612;37.698;2023-07-28T12:49:28;10.40;;;3.70;;
75427;SDS011;64008;55.612;37.698;2023-07-28T12:51:55;7.68;;;4.25;;
75427;SDS011;64008;55.612;37.698;2023-07-28T12:54:21;6.80;;;3.75;;
75427;SDS011;64008;55.612;37.698;2023-07-28T12:56:47;8.35;;;4.15;;
75427;SDS011;64008;55.612;37.698;2023-07-28T12:59:13;9.63;;;4.40;;
75427;SDS011;64008;55.612;37.698;2023-07-28T13:01:39;8.43;;;4.13;;
75427;SDS011;64008;55.612;37.698;2023-07-28T13:04:05;5.60;;;3.22;;
75427;SDS011;64008;55.612;37.698;2023-07-28T13:06:30;7.53;;;3.60;;
75427;SDS011;64008;55.612;37.698;2023-07-28T13:08:56;4.97;;;2.67;;
75427;SDS011;64008;55.612;37.698;2023-07-28T13:11:21;5.68;;;2.25;;
75427;SDS011;64008;55.612;37.698;2023-07-28T13:13:47;5.13;;;2.25;;
75427;SDS011;64008;55.612;37.698;2023-07-28T13:16:12;4.90;;;2.03;;
75427;SDS011;64008;55.612;37.698;2023-07-28T13:18:38;4.30;;;2.17;;
75427;SDS011;64008;55.612;37.698;2023-07-28T13:21:04;4.60;;;2.03;;
75427;SDS011;64008;55.612;37.698;2023-07-28T13:23:31;4.20;;;1.83;;
75427;SDS011;64008;55.612;37.698;2023-07-28T13:25:57;4.82;;;1.65;;
75427;SDS011;64008;55.612;37.698;2023-07-28T13:28:22;4.30;;;2.05;;
75427;SDS011;64008;55.612;37.698;2023-07-28T13:30:50;4.40;;;2.00;;
75427;SDS011;64008;55.612;37.698;2023-07-28T13:33:16;5.25;;;2.25;;
75427;SDS011;64008;55.612;37.698;2023-07-28T13:35:42;3.60;;;1.63;;
75427;SDS011;64008;55.612;37.698;2023-07-28T13:38:08;4.40;;;1.88;;
75427;SDS011;64008;55.612;37.698;2023-07-28T13:40:34;4.85;;;2.05;;
75427;SDS011;64008;55.612;37.698;2023-07-28T13:43:00;4.90;;;1.83;;
75427;SDS011;64008;55.612;37.698;2023-07-28T13:45:26;4.35;;;1.58;;
75427;SDS011;64008;55.612;37.698;2023-07-28T13:47:51;3.88;;;1.80;;
75427;SDS011;64008;55.612;37.698;2023-07-28T13:50:17;4.03;;;1.55;;
75427;SDS011;64008;55.612;37.698;2023-07-28T13:52:42;3.63;;;1.55;;
75427;SDS011;64008;55.612;37.698;2023-07-28T13:55:08;5.10;;;1.48;;
75427;SDS011;64008;55.612;37.698;2023-07-28T13:57:33;4.22;;;1.77;;
75427;SDS011;64008;55.612;37.698;2023-07-28T13:59:59;4.00;;;1.70;;
75427;SDS011;64008;55.612;37.698;2023-07-28T14:02:24;4.72;;;1.40;;
75427;SDS011;64008;55.612;37.698;2023-07-28T14:04:50;3.97;;;1.63;;
75427;SDS011;64008;55.612;37.698;2023-07-28T14:07:15;5.22;;;1.60;;
75427;SDS011;64008;55.612;37.698;2023-07-28T14:09:41;3.03;;;1.40;;
75427;SDS011;64008;55.612;37.698;2023-07-28T14:12:07;3.53;;;1.25;;
75427;SDS011;64008;55.612;37.698;2023-07-28T14:14:33;4.40;;;2.20;;
75427;SDS011;64008;55.612;37.698;2023-07-28T14:16:58;4.25;;;2.00;;
75427;SDS011;64008;55.612;37.698;2023-07-28T14:19:23;3.53;;;1.50;;
75427;SDS011;64008;55.612;37.698;2023-07-28T14:21:49;3.72;;;1.50;;
75427;SDS011;64008;55.612;37.698;2023-07-28T14:24:14;3.53;;;1.40;;
75427;SDS011;64008;55.612;37.698;2023-07-28T14:26:40;3.90;;;1.45;;
75427;SDS011;64008;55.612;37.698;2023-07-28T14:29:05;3.88;;;1.35;;
75427;SDS011;64008;55.612;37.698;2023-07-28T14:31:31;4.05;;;1.20;;
75427;SDS011;64008;55.612;37.698;2023-07-28T14:33:57;3.88;;;1.20;;
75427;SDS011;64008;55.612;37.698;2023-07-28T14:36:22;3.85;;;1.33;;
75427;SDS011;64008;55.612;37.698;2023-07-28T14:38:48;4.05;;;1.33;;
75427;SDS011;64008;55.612;37.698;2023-07-28T14:41:13;4.63;;;1.42;;
75427;SDS011;64008;55.612;37.698;2023-07-28T14:43:39;3.45;;;1.30;;
75427;SDS011;64008;55.612;37.698;2023-07-28T14:46:04;3.90;;;1.25;;
75427;SDS011;64008;55.612;37.698;2023-07-28T14:48:30;4.40;;;1.25;;
75427;SDS011;64008;55.612;37.698;2023-07-28T14:50:56;4.45;;;1.40;;
75427;SDS011;64008;55.612;37.698;2023-07-28T14:53:39;3.85;;;1.30;;
75427;SDS011;64008;55.612;37.698;2023-07-28T14:56:05;4.65;;;1.33;;
75427;SDS011;64008;55.612;37.698;2023-07-28T14:58:31;5.35;;;1.95;;
75427;SDS011;64008;55.612;37.698;2023-07-28T15:00:57;6.25;;;2.70;;